sensor_id;sensor_type;location;lat;lon;timestamp;P1;durP1;ratioP1;P2;durP2;ratioP2
33810;SDS011;20119;48.334;16.206;2023-08-17T05:34:44;12.52;;;11.32;;
33810;SDS011;20119;48.334;16.206;2023-08-17T05:37:11;13.10;;;10.60;;
33810;SDS011;20119;48.334;16.206;2023-08-17T05:42:20;12.75;;;10.18;;
33810;SDS011;20119;48.334;16.206;2023-08-17T05:47:23;12.18;;;10.05;;
33810;SDS011;20119;48.334;16.206;2023-08-17T05:49:51;16.55;;;10.50;;
33810;SDS011;20119;48.334;16.206;2023-08-17T05:52:18;11.55;;;10.30;;
33810;SDS011;20119;48.334;16.206;2023-08-17T05:54:45;11.60;;;9.95;;
33810;SDS011;20119;48.334;16.206;2023-08-17T05:57:12;10.38;;;9.38;;
33810;SDS011;20119;48.334;16.206;2023-08-17T05:59:39;11.68;;;9.98;;
33810;SDS011;20119;48.334;16.206;2023-08-17T06:02:06;11.02;;;9.88;;
33810;SDS011;20119;48.334;16.206;2023-08-17T06:04:33;11.80;;;10.50;;
33810;SDS011;20119;48.334;16.206;2023-08-17T06:07:02;10.43;;;9.43;;
33810;SDS011;20119;48.334;16.206;2023-08-17T06:09:28;11.82;;;10.63;;
33810;SDS011;20119;48.334;16.206;2023-08-17T06:11:55;12.75;;;10.68;;
33810;SDS011;20119;48.334;16.206;2023-08-17T06:14:22;11.57;;;10.38;;
33810;SDS011;20119;48.334;16.206;2023-08-17T06:16:50;11.13;;;9.90;;
33810;SDS011;20119;48.334;16.206;2023-08-17T06:19:17;11.45;;;10.35;;
33810;SDS011;20119;48.334;16.206;2023-08-17T06:21:44;11.45;;;10.13;;
33810;SDS011;20119;48.334;16.206;2023-08-17T06:24:12;10.85;;;9.75;;
33810;SDS011;20119;48.334;16.206;2023-08-17T06:26:39;8.85;;;7.72;;
33810;SDS011;20119;48.334;16.206;2023-08-17T06:29:06;10.20;;;9.20;;
33810;SDS011;20119;48.334;16.206;2023-08-17T06:31:33;9.20;;;8.32;;
33810;SDS011;20119;48.334;16.206;2023-08-17T06:34:00;10.70;;;9.70;;
33810;SDS011;20119;48.334;16.206;2023-08-17T06:36:30;11.38;;;10.27;;
33810;SDS011;20119;48.334;16.206;2023-08-17T06:38:57;10.82;;;9.73;;
33810;SDS011;20119;48.334;16.206;2023-08-17T06:41:25;11.20;;;10.20;;
33810;SDS011;20119;48.334;16.206;2023-08-17T06:43:52;10.85;;;9.75;;
33810;SDS011;20119;48.334;16.206;2023-08-17T06:46:19;10.60;;;9.50;;
33810;SDS011;20119;48.334;16.206;2023-08-17T06:48:46;10.80;;;9.70;;
33810;SDS011;20119;48.334;16.206;2023-08-17T06:51:13;10.15;;;9.15;;
33810;SDS011;20119;48.334;16.206;2023-08-17T06:53:40;10.75;;;9.65;;
33810;SDS011;20119;48.334;16.206;2023-08-17T06:56:08;11.90;;;9.65;;
33810;SDS011;20119;48.334;16.206;2023-08-17T06:58:37;11.32;;;10.23;;
33810;SDS011;20119;48.334;16.206;2023-08-17T07:01:04;10.60;;;9.60;;
33810;SDS011;20119;48.334;16.206;2023-08-17T07:03:31;12.10;;;10.88;;
33810;SDS011;20119;48.334;16.206;2023-08-17T07:06:00;11.10;;;9.98;;
33810;SDS011;20119;48.334;16.206;2023-08-17T07:08:27;8.73;;;7.93;;
33810;SDS011;20119;48.334;16.206;2023-08-17T07:10:54;11.32;;;10.30;;
33810;SDS011;20119;48.334;16.206;2023-08-17T07:13:21;12.35;;;11.15;;
33810;SDS011;20119;48.334;16.206;2023-08-17T07:15:50;11.38;;;10.27;;
33810;SDS011;20119;48.334;16.206;2023-08-17T07:18:16;12.40;;;10.20;;
33810;SDS011;20119;48.334;16.206;2023-08-17T07:20:43;12.40;;;10.27;;
33810;SDS011;20119;48.334;16.206;2023-08-17T07:23:10;11.38;;;10.27;;
33810;SDS011;20119;48.334;16.206;2023-08-17T07:25:37;11.95;;;10.23;;
33810;SDS011;20119;48.334;16.206;2023-08-17T07:28:04;11.57;;;10.57;;
33810;SDS011;20119;48.334;16.206;2023-08-17T07:30:32;13.50;;;11.15;;
33810;SDS011;20119;48.334;16.206;2023-08-17T07:33:00;12.90;;;10.43;;
33810;SDS011;20119;48.334;16.206;2023-08-17T07:35:27;11.50;;;10.40;;
33810;SDS011;20119;48.334;16.206;2023-08-17T07:37:54;11.55;;;10.45;;
33810;SDS011;20119;48.334;16.206;2023-08-17T07:40:21;11.27;;;10.07;;
33810;SDS011;20119;48.334;16.206;2023-08-17T07:42:48;13.35;;;11.98;;
33810;SDS011;20119;48.334;16.206;2023-08-17T07:45:18;11.77;;;9.73;;
33810;SDS011;20119;48.334;16.206;2023-08-17T07:47:48;12.75;;;11.45;;
33810;SDS011;20119;48.334;16.206;2023-08-17T07:50:17;13.20;;;11.90;;
33810;SDS011;20119;48.334;16.206;2023-08-17T07:52:45;11.53;;;10.53;;
33810;SDS011;20119;48.334;16.206;2023-08-17T07:57:50;11.68;;;10.50;;
33810;SDS011;20119;48.334;16.206;2023-08-17T08:05:29;14.73;;;10.18;;
33810;SDS011;20119;48.334;16.206;2023-08-17T08:07:56;11.05;;;8.90;;
33810;SDS011;20119;48.334;16.206;2023-08-17T08:13:08;11.68;;;9.48;;
33810;SDS011;20119;48.334;16.206;2023-08-17T08:15:36;11.05;;;8.52;;
33810;SDS011;20119;48.334;16.206;2023-08-17T08:18:03;11.63;;;9.77;;
33810;SDS011;20119;48.334;16.206;2023-08-17T08:20:32;13.88;;;10.02;;
33810;SDS011;20119;48.334;16.206;2023-08-17T08:23:00;11.68;;;9.32;;
33810;SDS011;20119;48.334;16.206;2023-08-17T08:25:28;10.93;;;9.15;;
33810;SDS011;20119;48.334;16.206;2023-08-17T08:27:55;9.30;;;8.40;;
33810;SDS011;20119;48.334;16.206;2023-08-17T08:30:22;8.88;;;8.05;;
33810;SDS011;20119;48.334;16.206;2023-08-17T08:32:49;9.32;;;7.68;;
33810;SDS011;20119;48.334;16.206;2023-08-17T08:35:16;7.60;;;6.80;;
33810;SDS011;20119;48.334;16.206;2023-08-17T08:37:45;8.98;;;7.63;;
33810;SDS011;20119;48.334;16.206;2023-08-17T08:40:12;9.40;;;7.18;;
33810;SDS011;20119;48.334;16.206;2023-08-17T08:42:39;8.20;;;7.13;;
33810;SDS011;20119;48.334;16.206;2023-08-17T08:45:06;8.02;;;6.28;;
33810;SDS011;20119;48.334;16.206;2023-08-17T08:47:34;8.70;;;5.82;;
33810;SDS011;20119;48.334;16.206;2023-08-17T08:50:03;6.90;;;5.80;;
33810;SDS011;20119;48.334;16.206;2023-08-17T08:52:32;9.77;;;5.68;;
33810;SDS011;20119;48.334;16.206;2023-08-17T08:55:05;8.73;;;5.20;;
33810;SDS011;20119;48.334;16.206;2023-08-17T08:57:37;6.60;;;5.75;;
33810;SDS011;20119;48.334;16.206;2023-08-17T09:00:06;7.28;;;5.35;;
33810;SDS011;20119;48.334;16.206;2023-08-17T09:02:34;6.63;;;5.40;;
33810;SDS011;20119;48.334;16.206;2023-08-17T09:05:01;7.38;;;5.30;;
33810;SDS011;20119;48.334;16.206;2023-08-17T09:07:29;6.57;;;5.45;;
33810;SDS011;20119;48.334;16.206;2023-08-17T09:09:56;6.55;;;5.10;;
33810;SDS011;20119;48.334;16.206;2023-08-17T09:12:24;6.13;;;4.50;;
33810;SDS011;20119;48.334;16.206;2023-08-17T09:14:51;6.80;;;5.22;;
33810;SDS011;20119;48.334;16.206;2023-08-17T09:17:22;7.25;;;6.53;;
33810;SDS011;20119;48.334;16.206;2023-08-17T09:19:50;8.35;;;6.80;;
33810;SDS011;20119;48.334;16.206;2023-08-17T09:22:22;11.65;;;6.80;;
33810;SDS011;20119;48.334;16.206;2023-08-17T09:24:50;8.77;;;7.38;;
33810;SDS011;20119;48.334;16.206;2023-08-17T09:27:17;9.02;;;7.30;;
33810;SDS011;20119;48.334;16.206;2023-08-17T09:29:45;9.60;;;7.38;;
33810;SDS011;20119;48.334;16.206;2023-08-17T09:32:14;8.75;;;7.30;;
33810;SDS011;20119;48.334;16.206;2023-08-17T09:34:42;8.70;;;7.30;;
33810;SDS011;20119;48.334;16.206;2023-08-17T09:37:11;11.88;;;7.40;;
33810;SDS011;20119;48.334;16.206;2023-08-17T09:39:38;9.82;;;7.38;;
33810;SDS011;20119;48.334;16.206;2023-08-17T09:42:06;8.98;;;7.05;;
33810;SDS011;20119;48.334;16.206;2023-08-17T09:44:33;8.10;;;6.60;;
33810;SDS011;20119;48.334;16.206;2023-08-17T09:47:02;9.00;;;7.38;;
33810;SDS011;20119;48.334;16.206;2023-08-17T09:49:31;8.38;;;7.50;;
33810;SDS011;20119;48.334;16.206;2023-08-17T09:51:59;9.00;;;7.00;;
33810;SDS011;20119;48.334;16.206;2023-08-17T09:54:27;11.90;;;7.00;;
33810;SDS011;20119;48.334;16.206;2023-08-17T09:56:57;10.30;;;7.32;;
33810;SDS011;20119;48.334;16.206;2023-08-17T09:59:24;7.57;;;6.78;;
33810;SDS011;20119;48.334;16.206;2023-08-17T10:01:51;7.38;;;6.78;;
33810;SDS011;20119;48.334;16.206;2023-08-17T10:04:21;7.45;;;6.57;;
33810;SDS011;20119;48.334;16.206;2023-08-17T10:06:50;9.00;;;6.40;;
33810;SDS011;20119;48.334;16.206;2023-08-17T10:09:23;7.90;;;6.63;;
33810;SDS011;20119;48.334;16.206;2023-08-17T10:11:51;9.02;;;7.05;;
33810;SDS011;20119;48.334;16.206;2023-08-17T10:14:21;7.68;;;6.97;;
33810;SDS011;20119;48.334;16.206;2023-08-17T10:16:57;8.40;;;6.75;;
33810;SDS011;20119;48.334;16.206;2023-08-17T10:19:33;8.45;;;6.88;;
33810;SDS011;20119;48.334;16.206;2023-08-17T10:22:09;9.02;;;6.93;;
33810;SDS011;20119;48.334;16.206;2023-08-17T10:24:40;10.18;;;7.28;;
33810;SDS011;20119;48.334;16.206;2023-08-17T10:27:08;8.95;;;7.28;;
33810;SDS011;20119;48.334;16.206;2023-08-17T10:29:36;8.18;;;7.13;;
33810;SDS011;20119;48.334;16.206;2023-08-17T10:32:06;7.05;;;6.35;;
33810;SDS011;20119;48.334;16.206;2023-08-17T10:34:34;9.00;;;6.45;;
33810;SDS011;20119;48.334;16.206;2023-08-17T10:37:03;11.07;;;6.68;;
33810;SDS011;20119;48.334;16.206;2023-08-17T10:39:31;11.45;;;7.15;;
33810;SDS011;20119;48.334;16.206;2023-08-17T10:41:59;9.60;;;7.07;;
33810;SDS011;20119;48.334;16.206;2023-08-17T10:44:37;9.90;;;7.15;;
33810;SDS011;20119;48.334;16.206;2023-08-17T10:47:18;8.43;;;7.20;;
33810;SDS011;20119;48.334;16.206;2023-08-17T10:49:51;8.35;;;6.93;;
33810;SDS011;20119;48.334;16.206;2023-08-17T10:52:25;8.82;;;7.07;;
33810;SDS011;20119;48.334;16.206;2023-08-17T10:54:53;7.90;;;7.10;;
33810;SDS011;20119;48.334;16.206;2023-08-17T10:57:24;7.70;;;6.90;;
33810;SDS011;20119;48.334;16.206;2023-08-17T11:02:44;8.77;;;6.05;;
33810;SDS011;20119;48.334;16.206;2023-08-17T11:05:13;9.68;;;6.25;;
33810;SDS011;20119;48.334;16.206;2023-08-17T11:10:13;8.07;;;6.07;;
33810;SDS011;20119;48.334;16.206;2023-08-17T11:12:53;6.30;;;5.70;;
33810;SDS011;20119;48.334;16.206;2023-08-17T11:15:22;7.07;;;6.03;;
33810;SDS011;20119;48.334;16.206;2023-08-17T11:17:49;9.57;;;5.43;;
33810;SDS011;20119;48.334;16.206;2023-08-17T11:20:18;9.88;;;5.95;;
33810;SDS011;20119;48.334;16.206;2023-08-17T11:22:45;6.60;;;5.50;;
33810;SDS011;20119;48.334;16.206;2023-08-17T11:25:13;5.72;;;5.22;;
33810;SDS011;20119;48.334;16.206;2023-08-17T11:27:41;5.88;;;5.28;;
33810;SDS011;20119;48.334;16.206;2023-08-17T11:30:09;5.00;;;4.50;;
33810;SDS011;20119;48.334;16.206;2023-08-17T11:32:37;6.53;;;4.82;;
33810;SDS011;20119;48.334;16.206;2023-08-17T11:35:04;6.20;;;4.43;;
33810;SDS011;20119;48.334;16.206;2023-08-17T11:37:33;4.18;;;3.78;;
33810;SDS011;20119;48.334;16.206;2023-08-17T11:40:00;6.45;;;4.15;;
33810;SDS011;20119;48.334;16.206;2023-08-17T11:42:27;5.15;;;3.80;;
33810;SDS011;20119;48.334;16.206;2023-08-17T11:44:54;5.20;;;4.07;;
33810;SDS011;20119;48.334;16.206;2023-08-17T11:47:21;4.75;;;4.22;;
33810;SDS011;20119;48.334;16.206;2023-08-17T11:49:48;5.72;;;4.47;;
33810;SDS011;20119;48.334;16.206;2023-08-17T11:52:15;4.50;;;4.00;;
33810;SDS011;20119;48.334;16.206;2023-08-17T11:54:43;6.10;;;5.03;;
33810;SDS011;20119;48.334;16.206;2023-08-17T11:57:11;6.60;;;5.10;;
33810;SDS011;20119;48.334;16.206;2023-08-17T11:59:37;6.78;;;4.90;;
33810;SDS011;20119;48.334;16.206;2023-08-17T12:02:04;8.10;;;5.30;;
33810;SDS011;20119;48.334;16.206;2023-08-17T12:04:32;6.97;;;5.88;;
33810;SDS011;20119;48.334;16.206;2023-08-17T12:06:59;7.07;;;5.40;;
33810;SDS011;20119;48.334;16.206;2023-08-17T12:09:26;7.55;;;5.00;;
33810;SDS011;20119;48.334;16.206;2023-08-17T12:12:00;6.90;;;5.57;;
33810;SDS011;20119;48.334;16.206;2023-08-17T12:14:28;6.88;;;6.15;;
33810;SDS011;20119;48.334;16.206;2023-08-17T12:16:54;6.60;;;5.80;;
33810;SDS011;20119;48.334;16.206;2023-08-17T12:19:22;7.75;;;5.85;;
33810;SDS011;20119;48.334;16.206;2023-08-17T12:21:51;6.70;;;5.77;;
33810;SDS011;20119;48.334;16.206;2023-08-17T12:24:18;6.40;;;5.78;;
33810;SDS011;20119;48.334;16.206;2023-08-17T12:26:45;8.07;;;6.30;;
33810;SDS011;20119;48.334;16.206;2023-08-17T12:29:14;8.50;;;5.95;;
33810;SDS011;20119;48.334;16.206;2023-08-17T12:31:41;9.35;;;5.60;;
33810;SDS011;20119;48.334;16.206;2023-08-17T12:34:09;7.00;;;5.45;;
33810;SDS011;20119;48.334;16.206;2023-08-17T12:36:35;8.02;;;5.13;;
33810;SDS011;20119;48.334;16.206;2023-08-17T12:39:03;5.93;;;4.97;;
33810;SDS011;20119;48.334;16.206;2023-08-17T12:41:30;6.68;;;5.10;;
33810;SDS011;20119;48.334;16.206;2023-08-17T12:43:57;6.43;;;5.00;;
33810;SDS011;20119;48.334;16.206;2023-08-17T12:46:29;8.90;;;5.68;;
33810;SDS011;20119;48.334;16.206;2023-08-17T12:48:57;5.70;;;5.20;;
33810;SDS011;20119;48.334;16.206;2023-08-17T12:51:25;8.43;;;4.78;;
33810;SDS011;20119;48.334;16.206;2023-08-17T12:53:52;6.15;;;5.00;;
33810;SDS011;20119;48.334;16.206;2023-08-17T12:56:19;8.57;;;5.00;;
33810;SDS011;20119;48.334;16.206;2023-08-17T12:58:46;7.28;;;5.35;;
33810;SDS011;20119;48.334;16.206;2023-08-17T13:01:13;8.55;;;4.90;;
33810;SDS011;20119;48.334;16.206;2023-08-17T13:03:42;7.45;;;4.93;;
33810;SDS011;20119;48.334;16.206;2023-08-17T13:06:09;8.50;;;4.75;;
33810;SDS011;20119;48.334;16.206;2023-08-17T13:08:36;7.18;;;4.97;;
33810;SDS011;20119;48.334;16.206;2023-08-17T13:11:03;8.18;;;4.68;;
33810;SDS011;20119;48.334;16.206;2023-08-17T13:13:30;8.52;;;4.75;;
33810;SDS011;20119;48.334;16.206;2023-08-17T13:15:57;6.75;;;4.90;;
33810;SDS011;20119;48.334;16.206;2023-08-17T13:18:24;5.90;;;4.22;;
33810;SDS011;20119;48.334;16.206;2023-08-17T13:20:52;4.35;;;3.95;;
33810;SDS011;20119;48.334;16.206;2023-08-17T13:23:20;6.75;;;4.20;;
33810;SDS011;20119;48.334;16.206;2023-08-17T13:25:47;7.70;;;3.92;;
33810;SDS011;20119;48.334;16.206;2023-08-17T13:28:14;6.57;;;4.55;;
33810;SDS011;20119;48.334;16.206;2023-08-17T13:30:45;6.78;;;4.40;;
33810;SDS011;20119;48.334;16.206;2023-08-17T13:33:12;6.30;;;5.00;;
33810;SDS011;20119;48.334;16.206;2023-08-17T13:35:39;7.47;;;4.88;;
33810;SDS011;20119;48.334;16.206;2023-08-17T13:38:08;5.50;;;4.30;;
33810;SDS011;20119;48.334;16.206;2023-08-17T13:40:35;8.18;;;4.60;;
33810;SDS011;20119;48.334;16.206;2023-08-17T13:43:04;7.15;;;4.43;;
33810;SDS011;20119;48.334;16.206;2023-08-17T13:45:37;5.05;;;4.55;;
33810;SDS011;20119;48.334;16.206;2023-08-17T13:48:04;5.50;;;4.90;;
33810;SDS011;20119;48.334;16.206;2023-08-17T13:50:32;6.70;;;4.60;;
33810;SDS011;20119;48.334;16.206;2023-08-17T13:52:59;7.30;;;4.18;;
33810;SDS011;20119;48.334;16.206;2023-08-17T13:55:27;6.07;;;4.72;;
33810;SDS011;20119;48.334;16.206;2023-08-17T13:57:54;7.35;;;4.97;;
33810;SDS011;20119;48.334;16.206;2023-08-17T14:00:21;7.00;;;4.43;;
33810;SDS011;20119;48.334;16.206;2023-08-17T14:02:48;6.45;;;4.53;;
33810;SDS011;20119;48.334;16.206;2023-08-17T14:05:15;7.85;;;4.60;;
33810;SDS011;20119;48.334;16.206;2023-08-17T14:07:42;6.45;;;4.63;;
33810;SDS011;20119;48.334;16.206;2023-08-17T14:10:10;6.03;;;4.70;;
33810;SDS011;20119;48.334;16.206;2023-08-17T14:12:38;9.25;;;5.18;;
33810;SDS011;20119;48.334;16.206;2023-08-17T14:15:06;5.30;;;4.43;;
33810;SDS011;20119;48.334;16.206;2023-08-17T14:17:33;6.07;;;4.50;;
33810;SDS011;20119;48.334;16.206;2023-08-17T14:20:00;8.05;;;4.88;;
33810;SDS011;20119;48.334;16.206;2023-08-17T14:22:27;7.50;;;4.85;;
33810;SDS011;20119;48.334;16.206;2023-08-17T14:24:54;11.40;;;5.68;;
33810;SDS011;20119;48.334;16.206;2023-08-17T14:27:21;7.43;;;5.68;;
33810;SDS011;20119;48.334;16.206;2023-08-17T14:29:50;6.90;;;5.45;;
33810;SDS011;20119;48.334;16.206;2023-08-17T14:32:16;6.90;;;5.15;;
33810;SDS011;20119;48.334;16.206;2023-08-17T14:34:43;7.70;;;4.93;;
33810;SDS011;20119;48.334;16.206;2023-08-17T14:37:10;6.00;;;4.85;;
33810;SDS011;20119;48.334;16.206;2023-08-17T14:39:37;7.28;;;4.80;;
33810;SDS011;20119;48.334;16.206;2023-08-17T14:42:04;5.57;;;4.97;;
33810;SDS011;20119;48.334;16.206;2023-08-17T14:44:31;6.15;;;4.93;;
33810;SDS011;20119;48.334;16.206;2023-08-17T14:47:00;8.82;;;4.43;;
33810;SDS011;20119;48.334;16.206;2023-08-17T14:52:12;7.05;;;4.80;;
33810;SDS011;20119;48.334;16.206;2023-08-17T14:55:00;7.90;;;4.70;;
33810;SDS011;20119;48.334;16.206;2023-08-17T14:57:29;6.22;;;5.25;;
33810;SDS011;20119;48.334;16.206;2023-08-17T14:59:56;7.40;;;5.20;;
33810;SDS011;20119;48.334;16.206;2023-08-17T15:02:24;6.72;;;5.18;;
33810;SDS011;20119;48.334;16.206;2023-08-17T15:04:52;7.13;;;5.00;;
33810;SDS011;20119;48.334;16.206;2023-08-17T15:07:19;6.32;;;5.20;;
33810;SDS011;20119;48.334;16.206;2023-08-17T15:09:46;6.97;;;5.00;;
33810;SDS011;20119;48.334;16.206;2023-08-17T15:12:14;8.23;;;5.18;;
33810;SDS011;20119;48.334;16.206;2023-08-17T15:14:41;8.45;;;5.25;;
33810;SDS011;20119;48.334;16.206;2023-08-17T15:17:08;6.40;;;5.18;;
33810;SDS011;20119;48.334;16.206;2023-08-17T15:19:38;11.35;;;4.95;;
33810;SDS011;20119;48.334;16.206;2023-08-17T15:22:05;8.15;;;5.10;;
33810;SDS011;20119;48.334;16.206;2023-08-17T15:24:32;9.73;;;4.78;;
33810;SDS011;20119;48.334;16.206;2023-08-17T15:26:59;6.63;;;4.90;;
33810;SDS011;20119;48.334;16.206;2023-08-17T15:29:26;6.25;;;5.07;;
33810;SDS011;20119;48.334;16.206;2023-08-17T15:31:53;8.32;;;5.18;;
33810;SDS011;20119;48.334;16.206;2023-08-17T15:34:20;6.95;;;4.82;;
33810;SDS011;20119;48.334;16.206;2023-08-17T15:36:49;7.82;;;5.10;;
33810;SDS011;20119;48.334;16.206;2023-08-17T15:39:16;5.47;;;4.70;;
33810;SDS011;20119;48.334;16.206;2023-08-17T15:41:43;8.48;;;4.90;;
33810;SDS011;20119;48.334;16.206;2023-08-17T15:44:10;8.70;;;5.10;;
33810;SDS011;20119;48.334;16.206;2023-08-17T15:46:37;5.10;;;4.60;;
33810;SDS011;20119;48.334;16.206;2023-08-17T15:49:04;6.97;;;5.10;;
33810;SDS011;20119;48.334;16.206;2023-08-17T15:51:32;6.20;;;4.75;;
33810;SDS011;20119;48.334;16.206;2023-08-17T15:54:01;6.05;;;4.80;;
33810;SDS011;20119;48.334;16.206;2023-08-17T15:56:28;8.83;;;5.00;;
33810;SDS011;20119;48.334;16.206;2023-08-17T15:58:57;10.15;;;5.00;;
33810;SDS011;20119;48.334;16.206;2023-08-17T16:01:24;9.13;;;5.35;;
33810;SDS011;20119;48.334;16.206;2023-08-17T16:22:10;5.60;;;5.10;;
33810;SDS011;20119;48.334;16.206;2023-08-17T16:24:38;7.20;;;5.40;;
33810;SDS011;20119;48.334;16.206;2023-08-17T16:27:08;7.15;;;5.30;;
33810;SDS011;20119;48.334;16.206;2023-08-17T16:29:36;6.75;;;5.82;;
33810;SDS011;20119;48.334;16.206;2023-08-17T16:32:03;6.82;;;6.18;;
33810;SDS011;20119;48.334;16.206;2023-08-17T16:34:31;8.98;;;5.90;;
33810;SDS011;20119;48.334;16.206;2023-08-17T16:36:58;6.30;;;5.70;;
33810;SDS011;20119;48.334;16.206;2023-08-17T16:39:27;8.10;;;5.80;;
33810;SDS011;20119;48.334;16.206;2023-08-17T16:41:55;7.82;;;6.10;;
33810;SDS011;20119;48.334;16.206;2023-08-17T16:44:22;6.28;;;5.78;;
33810;SDS011;20119;48.334;16.206;2023-08-17T16:46:49;9.40;;;6.07;;
33810;SDS011;20119;48.334;16.206;2023-08-17T16:49:16;11.10;;;6.53;;
33810;SDS011;20119;48.334;16.206;2023-08-17T16:51:43;6.95;;;6.32;;
33810;SDS011;20119;48.334;16.206;2023-08-17T16:54:11;10.18;;;6.20;;
33810;SDS011;20119;48.334;16.206;2023-08-17T16:56:39;7.40;;;6.45;;
33810;SDS011;20119;48.334;16.206;2023-08-17T16:59:08;10.30;;;6.20;;
33810;SDS011;20119;48.334;16.206;2023-08-17T17:04:05;7.35;;;5.82;;
33810;SDS011;20119;48.334;16.206;2023-08-17T17:06:32;6.43;;;5.70;;
33810;SDS011;20119;48.334;16.206;2023-08-17T17:09:00;7.60;;;5.20;;
33810;SDS011;20119;48.334;16.206;2023-08-17T17:11:27;7.50;;;5.55;;
33810;SDS011;20119;48.334;16.206;2023-08-17T17:13:55;8.57;;;5.63;;
33810;SDS011;20119;48.334;16.206;2023-08-17T17:16:22;9.55;;;5.85;;
33810;SDS011;20119;48.334;16.206;2023-08-17T17:18:49;7.55;;;5.70;;
33810;SDS011;20119;48.334;16.206;2023-08-17T17:21:16;6.70;;;5.00;;
33810;SDS011;20119;48.334;16.206;2023-08-17T17:23:43;6.45;;;5.70;;
33810;SDS011;20119;48.334;16.206;2023-08-17T17:26:10;6.28;;;5.50;;
33810;SDS011;20119;48.334;16.206;2023-08-17T17:28:38;7.10;;;5.30;;
33810;SDS011;20119;48.334;16.206;2023-08-17T17:31:06;8.02;;;5.63;;
33810;SDS011;20119;48.334;16.206;2023-08-17T17:33:33;8.65;;;6.65;;
33810;SDS011;20119;48.334;16.206;2023-08-17T17:36:00;7.93;;;5.57;;
33810;SDS011;20119;48.334;16.206;2023-08-17T17:38:28;6.90;;;5.57;;
33810;SDS011;20119;48.334;16.206;2023-08-17T17:40:55;6.05;;;5.45;;
33810;SDS011;20119;48.334;16.206;2023-08-17T17:43:23;6.13;;;5.32;;
33810;SDS011;20119;48.334;16.206;2023-08-17T17:45:50;5.57;;;5.10;;
33810;SDS011;20119;48.334;16.206;2023-08-17T17:48:19;6.13;;;5.53;;
33810;SDS011;20119;48.334;16.206;2023-08-17T17:50:46;6.20;;;5.60;;
33810;SDS011;20119;48.334;16.206;2023-08-17T17:53:13;5.90;;;5.40;;
33810;SDS011;20119;48.334;16.206;2023-08-17T17:55:40;6.43;;;5.80;;
33810;SDS011;20119;48.334;16.206;2023-08-17T17:58:08;8.13;;;5.70;;
33810;SDS011;20119;48.334;16.206;2023-08-17T18:00:36;6.60;;;5.70;;
33810;SDS011;20119;48.334;16.206;2023-08-17T18:03:08;7.95;;;6.10;;
33810;SDS011;20119;48.334;16.206;2023-08-17T18:05:37;7.13;;;5.97;;
33810;SDS011;20119;48.334;16.206;2023-08-17T18:08:05;6.82;;;5.75;;
33810;SDS011;20119;48.334;16.206;2023-08-17T18:10:33;7.05;;;5.75;;
33810;SDS011;20119;48.334;16.206;2023-08-17T18:13:02;7.32;;;5.70;;
33810;SDS011;20119;48.334;16.206;2023-08-17T18:15:30;6.90;;;6.05;;
33810;SDS011;20119;48.334;16.206;2023-08-17T18:17:58;7.38;;;5.80;;
33810;SDS011;20119;48.334;16.206;2023-08-17T18:20:25;7.40;;;6.20;;
33810;SDS011;20119;48.334;16.206;2023-08-17T18:22:54;6.68;;;6.07;;
33810;SDS011;20119;48.334;16.206;2023-08-17T18:25:21;7.22;;;6.63;;
33810;SDS011;20119;48.334;16.206;2023-08-17T18:27:50;8.38;;;6.28;;
33810;SDS011;20119;48.334;16.206;2023-08-17T18:30:17;7.40;;;6.60;;
33810;SDS011;20119;48.334;16.206;2023-08-17T18:35:30;8.13;;;7.20;;
33810;SDS011;20119;48.334;16.206;2023-08-17T18:38:02;8.98;;;7.07;;
33810;SDS011;20119;48.334;16.206;2023-08-17T18:40:29;7.07;;;6.38;;
33810;SDS011;20119;48.334;16.206;2023-08-17T18:42:57;7.25;;;6.43;;
33810;SDS011;20119;48.334;16.206;2023-08-17T18:45:24;7.47;;;6.60;;
33810;SDS011;20119;48.334;16.206;2023-08-17T18:50:42;9.88;;;6.90;;
33810;SDS011;20119;48.334;16.206;2023-08-17T18:53:13;7.78;;;6.97;;
33810;SDS011;20119;48.334;16.206;2023-08-17T18:55:44;8.07;;;7.05;;
33810;SDS011;20119;48.334;16.206;2023-08-17T19:06:28;8.80;;;7.30;;
33810;SDS011;20119;48.334;16.206;2023-08-17T19:25:18;8.63;;;7.80;;
33810;SDS011;20119;48.334;16.206;2023-08-17T19:30:27;9.55;;;8.65;;
33810;SDS011;20119;48.334;16.206;2023-08-17T19:38:10;9.38;;;8.50;;
33810;SDS011;20119;48.334;16.206;2023-08-17T19:40:48;10.25;;;9.13;;
33810;SDS011;20119;48.334;16.206;2023-08-17T19:43:33;10.10;;;9.10;;
33810;SDS011;20119;48.334;16.206;2023-08-17T19:46:01;9.52;;;8.63;;
33810;SDS011;20119;48.334;16.206;2023-08-17T19:48:28;9.90;;;8.90;;
33810;SDS011;20119;48.334;16.206;2023-08-17T19:50:56;10.02;;;9.10;;
33810;SDS011;20119;48.334;16.206;2023-08-17T19:53:23;11.23;;;9.40;;
33810;SDS011;20119;48.334;16.206;2023-08-17T19:55:53;10.15;;;9.07;;
33810;SDS011;20119;48.334;16.206;2023-08-17T19:58:23;10.57;;;9.27;;
33810;SDS011;20119;48.334;16.206;2023-08-17T20:00:50;10.57;;;8.80;;
33810;SDS011;20119;48.334;16.206;2023-08-17T20:03:19;14.25;;;9.88;;
33810;SDS011;20119;48.334;16.206;2023-08-17T20:05:48;10.25;;;9.25;;
33810;SDS011;20119;48.334;16.206;2023-08-17T20:08:20;12.10;;;9.68;;
33810;SDS011;20119;48.334;16.206;2023-08-17T20:13:31;11.18;;;9.98;;
33810;SDS011;20119;48.334;16.206;2023-08-17T20:16:01;13.82;;;9.95;;
33810;SDS011;20119;48.334;16.206;2023-08-17T20:18:45;10.93;;;9.93;;
33810;SDS011;20119;48.334;16.206;2023-08-17T20:26:44;11.18;;;10.07;;
33810;SDS011;20119;48.334;16.206;2023-08-17T20:32:16;12.82;;;10.48;;
33810;SDS011;20119;48.334;16.206;2023-08-17T20:34:44;11.13;;;9.95;;
33810;SDS011;20119;48.334;16.206;2023-08-17T20:42:25;12.20;;;10.90;;
33810;SDS011;20119;48.334;16.206;2023-08-17T21:03:34;15.15;;;11.30;;
33810;SDS011;20119;48.334;16.206;2023-08-17T21:11:14;12.65;;;11.55;;
